sensor_id;sensor_type;location;lat;lon;timestamp;P1;durP1;ratioP1;P2;durP2;ratioP2
67685;SDS011;54469;52.090;4.312;2023-02-22T00:00:03;63.3;;;25;;
67685;SDS011;54469;52.090;4.312;2023-02-22T00:05:02;74.1;;;27.2;;
67685;SDS011;54469;52.090;4.312;2023-02-22T00:10:03;67.9;;;25.8;;
67685;SDS011;54469;52.090;4.312;2023-02-22T00:15:02;76.7;;;27.9;;
67685;SDS011;54469;52.090;4.312;2023-02-22T00:20:02;47.8;;;17;;
67685;SDS011;54469;52.090;4.312;2023-02-22T00:25:03;57.7;;;21.1;;
67685;SDS011;54469;52.090;4.312;2023-02-22T00:30:02;63;;;20.8;;
67685;SDS011;54469;52.090;4.312;2023-02-22T00:35:02;52.6;;;18.399999999999995;;
67685;SDS011;54469;52.090;4.312;2023-02-22T00:40:03;78.2;;;25.8;;
67685;SDS011;54469;52.090;4.312;2023-02-22T00:45:02;66;;;21.9;;
67685;SDS011;54469;52.090;4.312;2023-02-22T00:50:02;67.7;;;20.7;;
67685;SDS011;54469;52.090;4.312;2023-02-22T00:55:04;50.1;;;16.899999999999995;;
67685;SDS011;54469;52.090;4.312;2023-02-22T01:00:03;65.7;;;22.2;;
67685;SDS011;54469;52.090;4.312;2023-02-22T01:05:02;58.5;;;17.899999999999995;;
67685;SDS011;54469;52.090;4.312;2023-02-22T01:10:03;45.5;;;16.7;;
67685;SDS011;54469;52.090;4.312;2023-02-22T01:15:03;57.8;;;20.3;;
67685;SDS011;54469;52.090;4.312;2023-02-22T01:20:02;74.2;;;25.1;;
67685;SDS011;54469;52.090;4.312;2023-02-22T01:25:02;74.2;;;25.1;;
67685;SDS011;54469;52.090;4.312;2023-02-22T01:30:03;74.2;;;25.1;;
67685;SDS011;54469;52.090;4.312;2023-02-22T01:35:02;77.1;;;27;;
67685;SDS011;54469;52.090;4.312;2023-02-22T01:40:03;64.8;;;22.9;;
67685;SDS011;54469;52.090;4.312;2023-02-22T01:45:37;58.4;;;21.3;;
67685;SDS011;54469;52.090;4.312;2023-02-22T01:50:03;58.4;;;21.3;;
67685;SDS011;54469;52.090;4.312;2023-02-22T01:55:02;83.1;;;28.6;;
67685;SDS011;54469;52.090;4.312;2023-02-22T02:00:03;83.8;;;27.2;;
67685;SDS011;54469;52.090;4.312;2023-02-22T02:05:02;70.6;;;24.9;;
67685;SDS011;54469;52.090;4.312;2023-02-22T02:10:03;91.9;;;30.3;;
67685;SDS011;54469;52.090;4.312;2023-02-22T02:15:19;67;;;24.6;;
67685;SDS011;54469;52.090;4.312;2023-02-22T02:20:04;87.8;;;28.9;;
67685;SDS011;54469;52.090;4.312;2023-02-22T02:25:09;83.3;;;28.8;;
67685;SDS011;54469;52.090;4.312;2023-02-22T02:30:12;89.5;;;29;;
67685;SDS011;54469;52.090;4.312;2023-02-22T02:35:03;84.3;;;28.3;;
67685;SDS011;54469;52.090;4.312;2023-02-22T02:40:05;67.2;;;23.5;;
67685;SDS011;54469;52.090;4.312;2023-02-22T02:45:03;90;;;31.2;;
67685;SDS011;54469;52.090;4.312;2023-02-22T02:50:04;99.5;;;33.70000000000001;;
67685;SDS011;54469;52.090;4.312;2023-02-22T02:55:03;99.5;;;33.70000000000001;;
67685;SDS011;54469;52.090;4.312;2023-02-22T03:00:03;72.6;;;23.7;;
67685;SDS011;54469;52.090;4.312;2023-02-22T03:05:07;93;;;31.1;;
67685;SDS011;54469;52.090;4.312;2023-02-22T03:10:09;100.3;;;32.3;;
67685;SDS011;54469;52.090;4.312;2023-02-22T03:15:05;95.5;;;30.5;;
67685;SDS011;54469;52.090;4.312;2023-02-22T03:20:03;83.1;;;27.6;;
67685;SDS011;54469;52.090;4.312;2023-02-22T03:25:03;87.5;;;28.4;;
67685;SDS011;54469;52.090;4.312;2023-02-22T03:30:04;94;;;30.6;;
67685;SDS011;54469;52.090;4.312;2023-02-22T03:35:04;99.2;;;31.4;;
67685;SDS011;54469;52.090;4.312;2023-02-22T03:40:03;87.4;;;27.8;;
67685;SDS011;54469;52.090;4.312;2023-02-22T03:45:02;71.2;;;23.5;;
67685;SDS011;54469;52.090;4.312;2023-02-22T03:50:04;87.4;;;28.6;;
67685;SDS011;54469;52.090;4.312;2023-02-22T03:55:03;62.9;;;19.7;;
67685;SDS011;54469;52.090;4.312;2023-02-22T04:00:03;92.2;;;27.4;;
67685;SDS011;54469;52.090;4.312;2023-02-22T04:05:02;85.5;;;26.3;;
67685;SDS011;54469;52.090;4.312;2023-02-22T04:10:03;79.5;;;24.7;;
67685;SDS011;54469;52.090;4.312;2023-02-22T04:15:03;77.2;;;25.3;;
67685;SDS011;54469;52.090;4.312;2023-02-22T04:20:02;77.2;;;25.3;;
67685;SDS011;54469;52.090;4.312;2023-02-22T04:25:03;95.8;;;30.3;;
67685;SDS011;54469;52.090;4.312;2023-02-22T04:30:03;77.1;;;25.9;;
67685;SDS011;54469;52.090;4.312;2023-02-22T04:35:02;92.3;;;27.7;;
67685;SDS011;54469;52.090;4.312;2023-02-22T04:40:03;100.1;;;29.8;;
67685;SDS011;54469;52.090;4.312;2023-02-22T04:45:03;92.5;;;29.4;;
67685;SDS011;54469;52.090;4.312;2023-02-22T04:50:03;69.4;;;23.1;;
67685;SDS011;54469;52.090;4.312;2023-02-22T04:55:03;48.9;;;17.600000000000005;;
67685;SDS011;54469;52.090;4.312;2023-02-22T05:00:02;61.4;;;20.100000000000005;;
67685;SDS011;54469;52.090;4.312;2023-02-22T05:05:02;69.4;;;22.6;;
67685;SDS011;54469;52.090;4.312;2023-02-22T05:10:03;81.5;;;27.2;;
67685;SDS011;54469;52.090;4.312;2023-02-22T05:15:02;45.1;;;16.2;;
67685;SDS011;54469;52.090;4.312;2023-02-22T05:20:02;49.2;;;17;;
67685;SDS011;54469;52.090;4.312;2023-02-22T05:25:02;59.7;;;20.100000000000005;;
67685;SDS011;54469;52.090;4.312;2023-02-22T05:30:03;63.6;;;20;;
67685;SDS011;54469;52.090;4.312;2023-02-22T05:35:03;79.5;;;26.2;;
67685;SDS011;54469;52.090;4.312;2023-02-22T05:40:02;62.8;;;22.1;;
67685;SDS011;54469;52.090;4.312;2023-02-22T05:45:02;59.6;;;21.7;;
67685;SDS011;54469;52.090;4.312;2023-02-22T05:50:03;59.6;;;21.7;;
67685;SDS011;54469;52.090;4.312;2023-02-22T05:55:03;60.5;;;20.5;;
67685;SDS011;54469;52.090;4.312;2023-02-22T06:00:03;68.1;;;23.6;;
67685;SDS011;54469;52.090;4.312;2023-02-22T06:05:02;66.5;;;21.9;;
67685;SDS011;54469;52.090;4.312;2023-02-22T06:10:03;84.8;;;25.5;;
67685;SDS011;54469;52.090;4.312;2023-02-22T06:15:02;76.7;;;24.1;;
67685;SDS011;54469;52.090;4.312;2023-02-22T06:20:02;63.2;;;19.7;;
67685;SDS011;54469;52.090;4.312;2023-02-22T06:25:03;76.6;;;23.8;;
67685;SDS011;54469;52.090;4.312;2023-02-22T06:30:03;62.6;;;19.8;;
67685;SDS011;54469;52.090;4.312;2023-02-22T06:35:03;73.2;;;20.9;;
67685;SDS011;54469;52.090;4.312;2023-02-22T06:40:02;64.9;;;21.1;;
67685;SDS011;54469;52.090;4.312;2023-02-22T06:45:02;57.5;;;18.2;;
67685;SDS011;54469;52.090;4.312;2023-02-22T06:50:03;64.5;;;21.4;;
67685;SDS011;54469;52.090;4.312;2023-02-22T06:55:02;59.2;;;19.399999999999995;;
67685;SDS011;54469;52.090;4.312;2023-02-22T07:00:02;60.4;;;20.399999999999995;;
67685;SDS011;54469;52.090;4.312;2023-02-22T07:05:02;52.2;;;17;;
67685;SDS011;54469;52.090;4.312;2023-02-22T07:10:03;56.2;;;20;;
67685;SDS011;54469;52.090;4.312;2023-02-22T07:15:02;56.2;;;20;;
67685;SDS011;54469;52.090;4.312;2023-02-22T07:20:02;46;;;16.1;;
67685;SDS011;54469;52.090;4.312;2023-02-22T07:25:03;50.8;;;16.4;;
67685;SDS011;54469;52.090;4.312;2023-02-22T07:30:03;41.7;;;14.8;;
67685;SDS011;54469;52.090;4.312;2023-02-22T07:35:02;53.8;;;17.100000000000005;;
67685;SDS011;54469;52.090;4.312;2023-02-22T07:40:03;37.70000000000001;;;15;;
67685;SDS011;54469;52.090;4.312;2023-02-22T07:45:02;54.5;;;19.399999999999995;;
67685;SDS011;54469;52.090;4.312;2023-02-22T07:50:02;43.9;;;16.1;;
67685;SDS011;54469;52.090;4.312;2023-02-22T07:55:03;30.1;;;13.7;;
67685;SDS011;54469;52.090;4.312;2023-02-22T08:00:03;44.5;;;16.899999999999995;;
67685;SDS011;54469;52.090;4.312;2023-02-22T08:05:04;44.5;;;16.899999999999995;;
67685;SDS011;54469;52.090;4.312;2023-02-22T08:10:02;46.2;;;18.399999999999995;;
67685;SDS011;54469;52.090;4.312;2023-02-22T08:15:03;37.20000000000001;;;15.5;;
67685;SDS011;54469;52.090;4.312;2023-02-22T08:20:02;44.4;;;17.3;;
67685;SDS011;54469;52.090;4.312;2023-02-22T08:25:03;36.9;;;14.4;;
67685;SDS011;54469;52.090;4.312;2023-02-22T08:30:02;36.9;;;14.4;;
67685;SDS011;54469;52.090;4.312;2023-02-22T08:35:02;34.29999999999999;;;14.7;;
67685;SDS011;54469;52.090;4.312;2023-02-22T08:40:03;41;;;17.100000000000005;;
67685;SDS011;54469;52.090;4.312;2023-02-22T08:45:03;32.4;;;14.9;;
67685;SDS011;54469;52.090;4.312;2023-02-22T08:50:02;35.70000000000001;;;15.4;;
67685;SDS011;54469;52.090;4.312;2023-02-22T08:55:03;35.70000000000001;;;15.4;;
67685;SDS011;54469;52.090;4.312;2023-02-22T09:00:03;31.5;;;13.6;;
67685;SDS011;54469;52.090;4.312;2023-02-22T09:05:02;35.4;;;15.5;;
67685;SDS011;54469;52.090;4.312;2023-02-22T09:10:03;37.1;;;16.7;;
67685;SDS011;54469;52.090;4.312;2023-02-22T09:15:03;33.9;;;14.7;;
67685;SDS011;54469;52.090;4.312;2023-02-22T09:20:02;26.8;;;14;;
67685;SDS011;54469;52.090;4.312;2023-02-22T09:25:02;31.4;;;14.7;;
67685;SDS011;54469;52.090;4.312;2023-02-22T09:30:03;31.4;;;14.7;;
67685;SDS011;54469;52.090;4.312;2023-02-22T09:35:02;35;;;15;;
67685;SDS011;54469;52.090;4.312;2023-02-22T09:40:02;29.5;;;13.9;;
67685;SDS011;54469;52.090;4.312;2023-02-22T09:45:05;31.3;;;15;;
67685;SDS011;54469;52.090;4.312;2023-02-22T09:50:03;34.6;;;14.7;;
67685;SDS011;54469;52.090;4.312;2023-02-22T09:55:06;32;;;14.5;;
67685;SDS011;54469;52.090;4.312;2023-02-22T10:00:04;29.1;;;13.1;;
67685;SDS011;54469;52.090;4.312;2023-02-22T10:05:03;29.1;;;13.1;;
67685;SDS011;54469;52.090;4.312;2023-02-22T10:10:02;29.1;;;13.1;;
67685;SDS011;54469;52.090;4.312;2023-02-22T10:15:07;29.1;;;13.1;;
67685;SDS011;54469;52.090;4.312;2023-02-22T10:20:07;33.2;;;14.6;;
67685;SDS011;54469;52.090;4.312;2023-02-22T10:25:03;31.1;;;12.6;;
67685;SDS011;54469;52.090;4.312;2023-02-22T10:30:04;28.2;;;11.6;;
67685;SDS011;54469;52.090;4.312;2023-02-22T10:35:05;21.4;;;10.8;;
67685;SDS011;54469;52.090;4.312;2023-02-22T10:40:11;19.8;;;9.699999999999998;;
67685;SDS011;54469;52.090;4.312;2023-02-22T10:45:02;19.8;;;9.699999999999998;;
67685;SDS011;54469;52.090;4.312;2023-02-22T10:50:02;23.4;;;11.7;;
67685;SDS011;54469;52.090;4.312;2023-02-22T10:55:03;20.6;;;11.5;;
67685;SDS011;54469;52.090;4.312;2023-02-22T11:00:15;24.8;;;11.5;;
67685;SDS011;54469;52.090;4.312;2023-02-22T11:05:03;24.8;;;11.5;;
67685;SDS011;54469;52.090;4.312;2023-02-22T11:10:03;18;;;10;;
67685;SDS011;54469;52.090;4.312;2023-02-22T11:15:22;18;;;10;;
67685;SDS011;54469;52.090;4.312;2023-02-22T11:20:02;18;;;10;;
67685;SDS011;54469;52.090;4.312;2023-02-22T11:25:02;21.8;;;11.1;;
67685;SDS011;54469;52.090;4.312;2023-02-22T11:30:15;21.8;;;11.1;;
67685;SDS011;54469;52.090;4.312;2023-02-22T11:35:17;24.4;;;12.4;;
67685;SDS011;54469;52.090;4.312;2023-02-22T11:40:05;24.4;;;12.4;;
67685;SDS011;54469;52.090;4.312;2023-02-22T11:45:10;24.4;;;12.4;;
67685;SDS011;54469;52.090;4.312;2023-02-22T11:50:02;24.4;;;12.4;;
67685;SDS011;54469;52.090;4.312;2023-02-22T11:55:06;24.4;;;12.4;;
67685;SDS011;54469;52.090;4.312;2023-02-22T12:00:04;24.4;;;12.4;;
67685;SDS011;54469;52.090;4.312;2023-02-22T12:05:05;16.5;;;9.4;;
67685;SDS011;54469;52.090;4.312;2023-02-22T12:10:05;22;;;11.6;;
67685;SDS011;54469;52.090;4.312;2023-02-22T12:15:04;18;;;9.699999999999998;;
67685;SDS011;54469;52.090;4.312;2023-02-22T12:20:04;22.4;;;12.5;;
67685;SDS011;54469;52.090;4.312;2023-02-22T12:25:04;27.3;;;11.8;;
67685;SDS011;54469;52.090;4.312;2023-02-22T12:30:04;25.2;;;13.2;;
67685;SDS011;54469;52.090;4.312;2023-02-22T12:35:07;22.7;;;12;;
67685;SDS011;54469;52.090;4.312;2023-02-22T12:40:04;23.1;;;13.1;;
67685;SDS011;54469;52.090;4.312;2023-02-22T12:45:04;27.4;;;13.6;;
67685;SDS011;54469;52.090;4.312;2023-02-22T12:50:04;27.4;;;13.6;;
67685;SDS011;54469;52.090;4.312;2023-02-22T12:55:03;24;;;12.5;;
67685;SDS011;54469;52.090;4.312;2023-02-22T13:00:03;24.5;;;13.6;;
67685;SDS011;54469;52.090;4.312;2023-02-22T13:05:02;24.5;;;13.6;;
67685;SDS011;54469;52.090;4.312;2023-02-22T13:10:09;24.5;;;13.6;;
67685;SDS011;54469;52.090;4.312;2023-02-22T13:15:04;27.6;;;14.5;;
67685;SDS011;54469;52.090;4.312;2023-02-22T13:20:04;27.6;;;14.5;;
67685;SDS011;54469;52.090;4.312;2023-02-22T13:25:05;23;;;10.7;;
67685;SDS011;54469;52.090;4.312;2023-02-22T13:30:02;28.6;;;15.1;;
67685;SDS011;54469;52.090;4.312;2023-02-22T13:35:07;26.9;;;13.8;;
67685;SDS011;54469;52.090;4.312;2023-02-22T13:40:11;26.9;;;13.8;;
67685;SDS011;54469;52.090;4.312;2023-02-22T13:45:11;28.2;;;14.9;;
67685;SDS011;54469;52.090;4.312;2023-02-22T13:50:14;27.9;;;13.5;;
67685;SDS011;54469;52.090;4.312;2023-02-22T13:55:03;26.9;;;14.6;;
67685;SDS011;54469;52.090;4.312;2023-02-22T14:00:21;26.9;;;14.6;;
67685;SDS011;54469;52.090;4.312;2023-02-22T14:05:32;26.9;;;14.6;;
67685;SDS011;54469;52.090;4.312;2023-02-22T14:10:03;23.3;;;13.2;;
67685;SDS011;54469;52.090;4.312;2023-02-22T14:15:12;29.2;;;14.8;;
67685;SDS011;54469;52.090;4.312;2023-02-22T14:20:05;29;;;15.9;;
67685;SDS011;54469;52.090;4.312;2023-02-22T14:25:03;26.4;;;15;;
67685;SDS011;54469;52.090;4.312;2023-02-22T14:30:03;26.4;;;15;;
67685;SDS011;54469;52.090;4.312;2023-02-22T14:35:03;18.899999999999995;;;10.6;;
67685;SDS011;54469;52.090;4.312;2023-02-22T14:40:03;21;;;13;;
67685;SDS011;54469;52.090;4.312;2023-02-22T14:45:04;22.4;;;11.6;;
67685;SDS011;54469;52.090;4.312;2023-02-22T14:50:04;25.7;;;13.3;;
67685;SDS011;54469;52.090;4.312;2023-02-22T14:55:06;21.4;;;10.9;;
67685;SDS011;54469;52.090;4.312;2023-02-22T15:00:05;25.6;;;14;;
67685;SDS011;54469;52.090;4.312;2023-02-22T15:05:02;28.4;;;15.1;;
67685;SDS011;54469;52.090;4.312;2023-02-22T15:10:04;32.5;;;17.600000000000005;;
67685;SDS011;54469;52.090;4.312;2023-02-22T15:15:11;39.6;;;21.9;;
67685;SDS011;54469;52.090;4.312;2023-02-22T15:20:04;41.7;;;20.399999999999995;;
67685;SDS011;54469;52.090;4.312;2023-02-22T15:25:03;37.79999999999999;;;21.3;;
67685;SDS011;54469;52.090;4.312;2023-02-22T15:30:04;32.4;;;18.3;;
67685;SDS011;54469;52.090;4.312;2023-02-22T15:35:19;33.3;;;17.100000000000005;;
67685;SDS011;54469;52.090;4.312;2023-02-22T15:40:06;42.1;;;22;;
67685;SDS011;54469;52.090;4.312;2023-02-22T15:45:03;34.29999999999999;;;18.2;;
67685;SDS011;54469;52.090;4.312;2023-02-22T15:50:20;41.1;;;23.2;;
67685;SDS011;54469;52.090;4.312;2023-02-22T15:55:02;37.5;;;17.7;;
67685;SDS011;54469;52.090;4.312;2023-02-22T16:00:03;45;;;22.7;;
67685;SDS011;54469;52.090;4.312;2023-02-22T16:05:04;45;;;22.7;;
67685;SDS011;54469;52.090;4.312;2023-02-22T16:10:02;45;;;22.7;;
67685;SDS011;54469;52.090;4.312;2023-02-22T16:15:12;50.4;;;24.5;;
67685;SDS011;54469;52.090;4.312;2023-02-22T16:20:28;28;;;14;;
67685;SDS011;54469;52.090;4.312;2023-02-22T16:25:11;46.5;;;23.3;;
67685;SDS011;54469;52.090;4.312;2023-02-22T16:30:04;48.5;;;21.6;;
67685;SDS011;54469;52.090;4.312;2023-02-22T16:35:02;46.1;;;23.3;;
67685;SDS011;54469;52.090;4.312;2023-02-22T16:40:03;43.9;;;22.7;;
67685;SDS011;54469;52.090;4.312;2023-02-22T16:45:03;39.1;;;19.7;;
67685;SDS011;54469;52.090;4.312;2023-02-22T16:50:02;30.6;;;15.6;;
67685;SDS011;54469;52.090;4.312;2023-02-22T16:55:03;41.7;;;20.399999999999995;;
67685;SDS011;54469;52.090;4.312;2023-02-22T17:00:03;50.5;;;23.2;;
67685;SDS011;54469;52.090;4.312;2023-02-22T17:05:02;44.1;;;21.3;;
67685;SDS011;54469;52.090;4.312;2023-02-22T17:10:03;45.6;;;22.7;;
67685;SDS011;54469;52.090;4.312;2023-02-22T17:15:03;43.7;;;21.4;;
67685;SDS011;54469;52.090;4.312;2023-02-22T17:20:02;43.5;;;19.899999999999995;;
67685;SDS011;54469;52.090;4.312;2023-02-22T17:25:08;43.5;;;19.899999999999995;;
67685;SDS011;54469;52.090;4.312;2023-02-22T17:30:03;43.9;;;21.1;;
67685;SDS011;54469;52.090;4.312;2023-02-22T17:35:02;49.8;;;20.100000000000005;;
67685;SDS011;54469;52.090;4.312;2023-02-22T17:40:03;38.1;;;17.5;;
67685;SDS011;54469;52.090;4.312;2023-02-22T17:45:02;34.5;;;15.8;;
67685;SDS011;54469;52.090;4.312;2023-02-22T17:50:02;36.79999999999999;;;15.7;;
67685;SDS011;54469;52.090;4.312;2023-02-22T17:55:02;39.29999999999999;;;18.2;;
67685;SDS011;54469;52.090;4.312;2023-02-22T18:00:03;47.7;;;21.7;;
67685;SDS011;54469;52.090;4.312;2023-02-22T18:05:03;44.6;;;19.600000000000005;;
67685;SDS011;54469;52.090;4.312;2023-02-22T18:10:02;44.6;;;19.600000000000005;;
67685;SDS011;54469;52.090;4.312;2023-02-22T18:15:03;39;;;18.8;;
67685;SDS011;54469;52.090;4.312;2023-02-22T18:20:03;48.4;;;21.1;;
67685;SDS011;54469;52.090;4.312;2023-02-22T18:25:02;44.7;;;20.6;;
67685;SDS011;54469;52.090;4.312;2023-02-22T18:30:02;39.5;;;19;;
67685;SDS011;54469;52.090;4.312;2023-02-22T18:35:02;44;;;20.3;;
67685;SDS011;54469;52.090;4.312;2023-02-22T18:40:03;41.7;;;19.2;;
67685;SDS011;54469;52.090;4.312;2023-02-22T18:45:03;37.20000000000001;;;18.899999999999995;;
67685;SDS011;54469;52.090;4.312;2023-02-22T18:50:02;41;;;17.8;;
67685;SDS011;54469;52.090;4.312;2023-02-22T18:55:03;35.70000000000001;;;15.4;;
67685;SDS011;54469;52.090;4.312;2023-02-22T19:00:02;41.5;;;18.5;;
67685;SDS011;54469;52.090;4.312;2023-02-22T19:05:02;41.5;;;18.5;;
67685;SDS011;54469;52.090;4.312;2023-02-22T19:10:02;43.5;;;19.5;;
67685;SDS011;54469;52.090;4.312;2023-02-22T19:15:03;45.4;;;20.9;;
67685;SDS011;54469;52.090;4.312;2023-02-22T19:20:03;41.9;;;19.399999999999995;;
67685;SDS011;54469;52.090;4.312;2023-02-22T19:25:03;41.9;;;19.399999999999995;;
67685;SDS011;54469;52.090;4.312;2023-02-22T19:30:02;47.6;;;22.5;;
67685;SDS011;54469;52.090;4.312;2023-02-22T19:35:02;41.1;;;19;;
67685;SDS011;54469;52.090;4.312;2023-02-22T19:40:03;43.2;;;20.3;;
67685;SDS011;54469;52.090;4.312;2023-02-22T19:45:02;46.2;;;21;;
67685;SDS011;54469;52.090;4.312;2023-02-22T19:50:03;49.4;;;23;;
67685;SDS011;54469;52.090;4.312;2023-02-22T19:55:02;47.4;;;22.6;;
67685;SDS011;54469;52.090;4.312;2023-02-22T20:00:02;47.2;;;20.9;;
67685;SDS011;54469;52.090;4.312;2023-02-22T20:05:02;44;;;20.3;;
67685;SDS011;54469;52.090;4.312;2023-02-22T20:10:03;51;;;21.8;;
67685;SDS011;54469;52.090;4.312;2023-02-22T20:15:07;45.5;;;20.399999999999995;;
67685;SDS011;54469;52.090;4.312;2023-02-22T20:20:02;49.8;;;22.6;;
67685;SDS011;54469;52.090;4.312;2023-02-22T20:25:03;52.9;;;22.9;;
67685;SDS011;54469;52.090;4.312;2023-02-22T20:30:03;54.4;;;24.4;;
67685;SDS011;54469;52.090;4.312;2023-02-22T20:35:02;47.4;;;21.5;;
67685;SDS011;54469;52.090;4.312;2023-02-22T20:40:03;47.4;;;21.5;;
67685;SDS011;54469;52.090;4.312;2023-02-22T20:45:02;47.4;;;21.5;;
67685;SDS011;54469;52.090;4.312;2023-02-22T20:50:03;48.1;;;22.6;;
67685;SDS011;54469;52.090;4.312;2023-02-22T20:55:02;45.9;;;21.9;;
67685;SDS011;54469;52.090;4.312;2023-02-22T21:00:02;53.1;;;22.6;;
67685;SDS011;54469;52.090;4.312;2023-02-22T21:05:03;48.7;;;23.4;;
67685;SDS011;54469;52.090;4.312;2023-02-22T21:10:03;48.7;;;23.4;;
67685;SDS011;54469;52.090;4.312;2023-02-22T21:15:02;48.7;;;23.4;;
67685;SDS011;54469;52.090;4.312;2023-02-22T21:20:02;51;;;23.4;;
67685;SDS011;54469;52.090;4.312;2023-02-22T21:25:03;54.7;;;24;;
67685;SDS011;54469;52.090;4.312;2023-02-22T21:30:03;53.8;;;26.3;;
67685;SDS011;54469;52.090;4.312;2023-02-22T21:35:03;53.8;;;26.3;;
67685;SDS011;54469;52.090;4.312;2023-02-22T21:40:03;59.2;;;27.1;;
67685;SDS011;54469;52.090;4.312;2023-02-22T21:45:02;59.2;;;27.1;;
67685;SDS011;54469;52.090;4.312;2023-02-22T21:50:02;51.7;;;25.7;;
67685;SDS011;54469;52.090;4.312;2023-02-22T21:55:03;54.6;;;24.9;;
67685;SDS011;54469;52.090;4.312;2023-02-22T22:00:03;55.4;;;26.6;;
67685;SDS011;54469;52.090;4.312;2023-02-22T22:05:02;55.4;;;26.6;;
67685;SDS011;54469;52.090;4.312;2023-02-22T22:10:03;54.5;;;25.2;;
67685;SDS011;54469;52.090;4.312;2023-02-22T22:15:03;54.5;;;25.2;;
67685;SDS011;54469;52.090;4.312;2023-02-22T22:20:03;59.3;;;26.3;;
67685;SDS011;54469;52.090;4.312;2023-02-22T22:25:03;59.3;;;26.3;;
67685;SDS011;54469;52.090;4.312;2023-02-22T22:30:03;57;;;27.5;;
67685;SDS011;54469;52.090;4.312;2023-02-22T22:35:03;59.5;;;27;;
67685;SDS011;54469;52.090;4.312;2023-02-22T22:40:02;55.9;;;26;;
67685;SDS011;54469;52.090;4.312;2023-02-22T22:45:03;55.9;;;26;;
67685;SDS011;54469;52.090;4.312;2023-02-22T22:50:03;54.9;;;24.7;;
67685;SDS011;54469;52.090;4.312;2023-02-22T22:55:02;57.5;;;26.3;;
67685;SDS011;54469;52.090;4.312;2023-02-22T23:00:04;57.5;;;26.3;;
67685;SDS011;54469;52.090;4.312;2023-02-22T23:05:03;51.8;;;25.4;;
67685;SDS011;54469;52.090;4.312;2023-02-22T23:10:03;51.8;;;25.4;;
67685;SDS011;54469;52.090;4.312;2023-02-22T23:15:02;53.9;;;25.3;;
67685;SDS011;54469;52.090;4.312;2023-02-22T23:20:02;53.9;;;25.3;;
67685;SDS011;54469;52.090;4.312;2023-02-22T23:25:04;60.9;;;26.1;;
67685;SDS011;54469;52.090;4.312;2023-02-22T23:30:03;56.5;;;24.6;;
67685;SDS011;54469;52.090;4.312;2023-02-22T23:35:03;56.5;;;24.6;;
67685;SDS011;54469;52.090;4.312;2023-02-22T23:40:02;56.5;;;24.6;;
67685;SDS011;54469;52.090;4.312;2023-02-22T23:45:02;60.2;;;25.1;;
67685;SDS011;54469;52.090;4.312;2023-02-22T23:50:03;52.8;;;24.8;;
67685;SDS011;54469;52.090;4.312;2023-02-22T23:55:03;61.5;;;25.7;;
